Time;durP1;ratioP1;P1;durP2;ratioP2;P2;SDS_P1;SDS_P2;PMS_P1;PMS_P2;Temp;Humidity;BMP_temperature;BMP_pressure;BME280_temperature;BME280_humidity;BME280_pressure;Samples;Min_cycle;Max_cycle;Signal;HPM_P1;HPM_P2
2024/01/20 00:00:44;;;;;;;9.90;5.78;;;22.80;39.70;;;;;;6251158;27;80424;-61
2024/01/20 00:03:45;;;;;;;10.10;5.60;;;22.80;39.50;;;;;;6233533;27;82878;-59
2024/01/20 00:06:45;;;;;;;10.32;5.88;;;22.80;39.70;;;;;;6274639;27;80606;-58
2024/01/20 00:09:46;;;;;;;10.18;5.50;;;22.80;39.70;;;;;;6273328;27;80522;-60
2024/01/20 00:12:46;;;;;;;10.98;5.85;;;22.80;39.50;;;;;;6275528;27;81368;-58
2024/01/20 00:15:47;;;;;;;13.00;5.65;;;22.80;39.60;;;;;;6274114;27;80357;-58
2024/01/20 00:18:48;;;;;;;9.63;5.22;;;22.70;40.00;;;;;;6265197;27;81880;-58
2024/01/20 00:21:48;;;;;;;10.02;4.97;;;22.70;39.40;;;;;;6273191;27;81342;-51
2024/01/20 00:24:48;;;;;;;9.30;5.32;;;22.80;39.30;;;;;;6255230;27;80499;-52
2024/01/20 00:27:49;;;;;;;8.45;5.38;;;22.70;39.40;;;;;;6263177;27;80339;-55
2024/01/20 00:30:50;;;;;;;9.23;5.20;;;22.70;39.40;;;;;;6265421;27;80480;-51
2024/01/20 00:33:50;;;;;;;11.88;5.55;;;22.70;39.60;;;;;;6274394;27;81116;-55
2024/01/20 00:36:51;;;;;;;10.20;4.97;;;22.80;39.50;;;;;;6276450;27;80231;-49
2024/01/20 00:39:51;;;;;;;10.52;5.57;;;22.80;40.10;;;;;;6261792;27;80504;-53
2024/01/20 00:42:52;;;;;;;11.38;4.93;;;22.80;39.80;;;;;;6260022;27;80727;-52
2024/01/20 00:45:52;;;;;;;8.02;4.50;;;22.80;39.60;;;;;;6253996;27;86947;-50
2024/01/20 00:48:52;;;;;;;9.73;5.28;;;22.80;39.50;;;;;;6263624;27;81193;-52
2024/01/20 00:51:53;;;;;;;10.10;5.00;;;22.80;39.40;;;;;;6249758;27;81316;-55
2024/01/20 00:54:53;;;;;;;8.05;4.45;;;22.80;39.30;;;;;;6271146;27;80722;-55
2024/01/20 00:57:54;;;;;;;8.30;4.55;;;22.80;39.50;;;;;;6274080;27;81076;-60
2024/01/20 01:00:54;;;;;;;9.05;5.13;;;22.80;39.30;;;;;;6273677;27;81167;-59
2024/01/20 01:03:55;;;;;;;8.27;4.65;;;22.80;39.50;;;;;;6272300;27;80348;-60
2024/01/20 01:06:55;;;;;;;7.70;4.07;;;22.80;39.60;;;;;;6272938;27;80794;-59
2024/01/20 01:09:56;;;;;;;9.65;4.70;;;22.80;39.30;;;;;;6272891;27;80451;-59
2024/01/20 01:12:56;;;;;;;7.38;4.25;;;22.80;39.30;;;;;;6273796;27;81873;-59
2024/01/20 01:15:57;;;;;;;8.73;4.05;;;22.80;39.20;;;;;;6273270;27;81534;-60
2024/01/20 01:18:57;;;;;;;9.25;4.35;;;22.80;39.20;;;;;;6263771;27;85975;-58
2024/01/20 01:21:58;;;;;;;8.70;4.20;;;22.80;39.10;;;;;;6258494;27;80458;-57
2024/01/20 01:24:58;;;;;;;7.50;3.95;;;22.80;39.10;;;;;;6273568;27;80392;-58
2024/01/20 01:27:59;;;;;;;7.50;3.90;;;22.70;39.10;;;;;;6253854;27;80771;-59
2024/01/20 01:30:59;;;;;;;7.53;3.85;;;22.70;39.00;;;;;;6270027;27;81378;-58
2024/01/20 01:34:00;;;;;;;7.60;4.45;;;22.70;39.10;;;;;;6265385;27;80520;-63
2024/01/20 01:37:00;;;;;;;7.22;3.72;;;22.70;39.20;;;;;;6269566;27;81538;-63
2024/01/20 01:40:01;;;;;;;7.03;3.90;;;22.70;39.20;;;;;;6279717;27;80371;-63
2024/01/20 01:43:02;;;;;;;7.60;4.07;;;22.70;39.30;;;;;;6253385;27;83891;-61
2024/01/20 01:46:03;;;;;;;5.75;3.78;;;22.70;39.40;;;;;;6253150;27;81478;-61
2024/01/20 01:49:03;;;;;;;7.40;3.95;;;22.70;39.40;;;;;;6278467;27;80359;-61
2024/01/20 01:52:04;;;;;;;8.50;3.72;;;22.70;39.30;;;;;;6278439;27;81380;-59
2024/01/20 01:55:04;;;;;;;6.38;3.72;;;22.70;39.30;;;;;;6278233;27;81033;-60
2024/01/20 01:58:05;;;;;;;7.45;3.95;;;22.70;39.30;;;;;;6278737;27;82510;-60
2024/01/20 02:01:05;;;;;;;8.90;4.45;;;22.70;39.30;;;;;;6271799;27;80395;-59
2024/01/20 02:04:06;;;;;;;10.25;4.68;;;22.70;39.30;;;;;;6257361;27;81827;-59
2024/01/20 02:07:06;;;;;;;8.75;4.20;;;22.70;39.30;;;;;;6254428;27;80917;-58
2024/01/20 02:10:06;;;;;;;8.70;4.28;;;22.70;39.20;;;;;;6266027;27;80616;-60
2024/01/20 02:13:07;;;;;;;6.72;3.80;;;22.70;39.30;;;;;;6253904;27;83665;-60
2024/01/20 02:16:07;;;;;;;6.68;3.70;;;22.70;39.30;;;;;;6255045;27;82416;-58
2024/01/20 02:19:08;;;;;;;9.13;4.50;;;22.70;39.40;;;;;;6263189;27;80434;-59
2024/01/20 02:22:08;;;;;;;6.93;4.07;;;22.70;39.50;;;;;;6265167;27;80785;-59
2024/01/20 02:25:09;;;;;;;5.80;3.63;;;22.70;39.50;;;;;;6277387;27;80452;-59
2024/01/20 02:28:09;;;;;;;7.78;3.90;;;22.70;39.50;;;;;;6277652;27;81102;-61
2024/01/20 02:31:10;;;;;;;7.68;3.65;;;22.70;39.60;;;;;;6272154;27;80529;-60
2024/01/20 02:34:10;;;;;;;7.47;3.78;;;22.70;39.50;;;;;;6270744;27;80725;-61
2024/01/20 02:37:11;;;;;;;7.32;4.05;;;22.70;39.40;;;;;;6261594;27;80978;-61
2024/01/20 02:40:11;;;;;;;10.07;4.38;;;22.70;39.40;;;;;;6264713;27;80139;-62
2024/01/20 02:43:12;;;;;;;7.00;3.70;;;22.70;39.40;;;;;;6278483;27;80214;-63
2024/01/20 02:46:12;;;;;;;7.70;3.88;;;22.70;39.30;;;;;;6262617;27;80329;-62
2024/01/20 02:49:13;;;;;;;7.88;3.63;;;22.70;39.30;;;;;;6263886;27;80460;-60
2024/01/20 02:52:13;;;;;;;6.15;3.65;;;22.70;39.30;;;;;;6277836;27;81847;-60
2024/01/20 02:55:13;;;;;;;9.90;4.40;;;22.60;39.20;;;;;;6276229;27;80760;-60
2024/01/20 02:58:14;;;;;;;6.28;3.85;;;22.70;39.20;;;;;;6276196;27;80307;-60
2024/01/20 03:01:14;;;;;;;7.20;3.90;;;22.60;39.20;;;;;;6275882;27;82410;-59
2024/01/20 03:04:15;;;;;;;7.55;4.53;;;22.70;39.20;;;;;;6275248;27;83163;-60
2024/01/20 03:07:16;;;;;;;7.88;4.63;;;22.60;39.10;;;;;;6276808;27;80214;-60
2024/01/20 03:10:16;;;;;;;6.75;3.83;;;22.60;39.10;;;;;;6275173;27;80825;-59
2024/01/20 03:13:17;;;;;;;7.18;3.75;;;22.60;39.10;;;;;;6275538;27;80747;-58
2024/01/20 03:16:17;;;;;;;5.40;3.17;;;22.60;39.20;;;;;;6263166;27;80770;-59
2024/01/20 03:19:18;;;;;;;7.20;4.15;;;22.60;39.20;;;;;;6275942;27;80351;-58
2024/01/20 03:22:18;;;;;;;6.53;3.90;;;22.60;39.10;;;;;;6277703;27;80342;-58
2024/01/20 03:25:19;;;;;;;6.38;3.72;;;22.60;39.10;;;;;;6275788;27;80363;-59
2024/01/20 03:28:19;;;;;;;7.85;4.07;;;22.60;39.10;;;;;;6263136;27;81549;-60
2024/01/20 03:31:20;;;;;;;7.55;3.85;;;22.60;39.10;;;;;;6263321;27;82308;-59
2024/01/20 03:34:21;;;;;;;5.63;2.95;;;22.60;39.20;;;;;;6275360;27;80341;-59
2024/01/20 03:37:22;;;;;;;7.18;3.70;;;22.60;39.00;;;;;;6275323;27;80757;-59
2024/01/20 03:40:22;;;;;;;8.02;3.83;;;22.60;38.90;;;;;;6276643;27;83127;-60
2024/01/20 03:43:23;;;;;;;7.25;4.05;;;22.60;38.90;;;;;;6275599;27;80524;-58
2024/01/20 03:46:23;;;;;;;7.07;3.88;;;22.60;39.10;;;;;;6275972;27;80393;-58
2024/01/20 03:49:24;;;;;;;5.95;3.38;;;22.60;39.00;;;;;;6275260;27;81108;-59
2024/01/20 03:52:24;;;;;;;5.47;3.60;;;22.70;39.00;;;;;;6276439;27;80389;-59
2024/01/20 03:55:25;;;;;;;8.00;3.60;;;22.60;38.80;;;;;;6277163;27;80821;-59
2024/01/20 03:58:25;;;;;;;6.15;3.30;;;22.60;38.80;;;;;;6264226;27;81084;-60
2024/01/20 04:01:26;;;;;;;6.60;3.42;;;22.70;39.00;;;;;;6251881;27;80614;-59
2024/01/20 04:04:26;;;;;;;7.40;3.78;;;22.60;38.70;;;;;;6252218;27;80741;-58
2024/01/20 04:07:27;;;;;;;8.88;3.70;;;22.60;39.00;;;;;;6250663;27;80361;-60
2024/01/20 04:10:27;;;;;;;5.03;3.30;;;22.60;38.80;;;;;;6250508;27;81711;-61
2024/01/20 04:13:28;;;;;;;6.80;3.50;;;22.60;39.40;;;;;;6250804;27;80335;-59
2024/01/20 04:16:28;;;;;;;6.75;3.35;;;22.60;38.60;;;;;;6255686;27;80361;-60
2024/01/20 04:19:29;;;;;;;7.78;3.83;;;22.70;38.80;;;;;;6258682;27;81061;-60
2024/01/20 04:22:29;;;;;;;5.80;3.25;;;22.70;38.80;;;;;;6251667;27;80490;-60
2024/01/20 04:25:30;;;;;;;5.25;3.53;;;22.70;38.50;;;;;;6269419;27;81589;-59
2024/01/20 04:28:30;;;;;;;6.05;3.42;;;22.70;38.10;;;;;;6271251;27;80476;-59
2024/01/20 04:31:31;;;;;;;5.82;3.00;;;22.80;38.00;;;;;;6263460;27;80272;-59
2024/01/20 04:34:31;;;;;;;5.68;3.25;;;22.80;37.80;;;;;;6263593;27;80601;-60
2024/01/20 04:37:32;;;;;;;8.48;4.30;;;22.90;37.90;;;;;;6231279;27;83188;-59
2024/01/20 04:40:32;;;;;;;7.28;3.38;;;22.90;37.70;;;;;;6245623;27;80864;-59
2024/01/20 04:43:33;;;;;;;6.82;3.47;;;23.00;37.90;;;;;;6248041;28;81035;-59
2024/01/20 04:46:33;;;;;;;6.03;3.10;;;23.00;37.80;;;;;;6242095;28;81579;-58
2024/01/20 04:49:34;;;;;;;7.50;3.20;;;23.00;37.80;;;;;;6239810;28;80605;-58
2024/01/20 04:52:34;;;;;;;4.70;3.00;;;23.10;37.80;;;;;;6241840;28;80696;-58
2024/01/20 04:55:35;;;;;;;4.80;3.05;;;23.10;37.90;;;;;;6224683;27;81176;-65
2024/01/20 04:58:35;;;;;;;5.10;2.83;;;23.10;37.70;;;;;;6237893;27;81432;-62
2024/01/20 05:01:36;;;;;;;6.05;3.08;;;23.10;37.70;;;;;;6242023;27;80423;-61
2024/01/20 05:04:36;;;;;;;5.90;3.08;;;23.10;37.60;;;;;;6244697;27;81798;-63
2024/01/20 05:07:37;;;;;;;5.35;3.20;;;23.20;37.50;;;;;;6248232;27;80440;-64
2024/01/20 05:10:37;;;;;;;5.60;2.53;;;23.20;37.60;;;;;;6242291;27;80887;-62
2024/01/20 05:13:38;;;;;;;5.93;3.20;;;23.20;37.50;;;;;;6242841;27;80963;-62
2024/01/20 05:16:38;;;;;;;5.57;3.33;;;23.20;37.70;;;;;;6247978;27;83291;-62
2024/01/20 05:19:39;;;;;;;4.30;2.60;;;23.30;37.90;;;;;;6249222;27;80905;-63
2024/01/20 05:22:39;;;;;;;5.70;3.22;;;23.20;37.70;;;;;;6244919;27;81122;-63
2024/01/20 05:25:40;;;;;;;5.57;3.13;;;23.30;37.80;;;;;;6234988;27;83865;-61
2024/01/20 05:28:41;;;;;;;6.35;3.05;;;23.30;37.80;;;;;;6252503;27;80404;-63
2024/01/20 05:31:41;;;;;;;6.55;3.08;;;23.30;37.90;;;;;;6253320;27;80785;-63
2024/01/20 05:34:42;;;;;;;5.32;3.25;;;23.30;37.90;;;;;;6238386;27;80290;-58
2024/01/20 05:37:42;;;;;;;5.18;3.42;;;23.30;37.90;;;;;;6228840;27;80578;-59
2024/01/20 05:40:42;;;;;;;5.53;2.80;;;23.30;38.10;;;;;;6236418;28;80414;-57
2024/01/20 05:43:43;;;;;;;5.30;2.97;;;23.30;38.20;;;;;;6240607;28;80281;-56
2024/01/20 05:46:43;;;;;;;6.07;3.20;;;23.30;38.40;;;;;;6232338;28;80467;-58
2024/01/20 05:49:44;;;;;;;4.65;2.60;;;23.40;38.40;;;;;;6250569;27;80555;-57
2024/01/20 05:52:45;;;;;;;5.03;2.92;;;23.40;38.40;;;;;;6252862;27;80804;-57
2024/01/20 05:55:45;;;;;;;5.00;2.50;;;23.40;38.30;;;;;;6252794;27;80456;-57
2024/01/20 05:58:46;;;;;;;6.60;3.35;;;23.40;38.20;;;;;;6253288;27;81195;-58
2024/01/20 06:01:50;;;;;;;6.28;3.13;;;23.40;38.30;;;;;;6241505;27;80580;-54
2024/01/20 06:04:50;;;;;;;6.28;3.42;;;23.40;38.60;;;;;;6228223;28;81526;-56
2024/01/20 06:07:51;;;;;;;7.32;3.33;;;23.40;39.00;;;;;;6249797;27;80919;-56
2024/01/20 06:10:51;;;;;;;9.63;3.17;;;23.40;39.10;;;;;;6232311;27;80513;-55
2024/01/20 06:13:52;;;;;;;5.30;3.35;;;23.40;39.10;;;;;;6227707;27;80891;-56
2024/01/20 06:16:52;;;;;;;7.22;3.60;;;23.40;39.10;;;;;;6236175;27;80439;-58
2024/01/20 06:19:53;;;;;;;5.32;3.00;;;23.40;38.90;;;;;;6245606;27;80032;-59
2024/01/20 06:22:53;;;;;;;8.10;3.53;;;23.30;39.10;;;;;;6227411;27;80518;-56
2024/01/20 06:25:54;;;;;;;6.70;3.30;;;23.30;39.00;;;;;;6249879;27;80512;-57
2024/01/20 06:28:54;;;;;;;7.50;3.03;;;23.30;39.00;;;;;;6252179;28;80693;-56
2024/01/20 06:31:55;;;;;;;6.75;3.30;;;23.30;39.00;;;;;;6251764;28;80823;-57
2024/01/20 06:34:55;;;;;;;4.72;2.88;;;23.30;39.20;;;;;;6228375;27;81057;-55
2024/01/20 06:37:57;;;;;;;6.28;3.90;;;23.20;39.00;;;;;;6235324;28;80581;-52
2024/01/20 06:40:58;;;;;;;7.30;3.72;;;23.20;39.10;;;;;;6248207;27;81082;-51
2024/01/20 06:43:58;;;;;;;6.18;2.83;;;23.20;39.00;;;;;;6226230;27;82881;-55
2024/01/20 06:46:59;;;;;;;9.15;3.58;;;23.20;39.30;;;;;;6251483;27;80998;-57
2024/01/20 06:50:00;;;;;;;9.10;3.17;;;23.20;39.90;;;;;;6250910;28;80923;-58
2024/01/20 06:53:00;;;;;;;5.82;3.10;;;23.10;39.10;;;;;;6252450;27;80764;-57
2024/01/20 06:56:00;;;;;;;5.88;3.50;;;23.10;38.90;;;;;;6251950;28;80699;-55
2024/01/20 06:59:01;;;;;;;7.55;3.80;;;23.00;39.20;;;;;;6251385;27;80468;-58
2024/01/20 07:02:01;;;;;;;7.47;3.50;;;23.10;39.40;;;;;;6250900;27;80561;-57
2024/01/20 07:05:02;;;;;;;5.85;3.40;;;23.10;38.80;;;;;;6252193;27;82555;-57
2024/01/20 07:08:02;;;;;;;8.07;4.25;;;23.10;38.60;;;;;;6251814;27;80429;-58
2024/01/20 07:11:03;;;;;;;9.68;4.05;;;23.10;39.00;;;;;;6251367;27;81287;-61
2024/01/20 07:14:03;;;;;;;5.50;3.72;;;23.10;39.00;;;;;;6240951;27;80432;-59
2024/01/20 07:17:05;;;;;;;9.48;4.55;;;23.10;38.60;;;;;;6251723;28;81106;-60
2024/01/20 07:20:05;;;;;;;6.95;3.90;;;23.10;38.50;;;;;;6251382;27;81056;-59
2024/01/20 07:23:06;;;;;;;4.95;3.15;;;23.10;38.70;;;;;;6250648;27;80423;-54
2024/01/20 07:26:06;;;;;;;7.53;3.30;;;23.10;39.80;;;;;;6250965;27;80409;-53
2024/01/20 07:29:07;;;;;;;7.03;3.95;;;23.10;39.50;;;;;;6239956;27;80688;-56
2024/01/20 07:32:07;;;;;;;7.90;4.72;;;23.20;38.40;;;;;;6247881;27;80664;-57
2024/01/20 07:35:08;;;;;;;5.88;4.03;;;23.20;38.30;;;;;;6254747;27;80692;-57
2024/01/20 07:38:08;;;;;;;18.02;9.27;;;23.30;38.20;;;;;;6255114;27;80302;-50
2024/01/20 07:41:08;;;;;;;12.18;6.32;;;23.30;39.10;;;;;;6243529;27;80731;-59
2024/01/20 07:44:09;;;;;;;15.85;7.38;;;23.30;39.20;;;;;;6248832;27;80427;-59
2024/01/20 07:47:10;;;;;;;16.17;7.03;;;23.30;39.40;;;;;;6260542;27;81155;-59
2024/01/20 07:50:11;;;;;;;26.42;8.90;;;23.30;39.80;;;;;;6250776;28;80866;-58
2024/01/20 07:53:11;;;;;;;18.38;8.70;;;23.40;40.00;;;;;;6256969;27;80356;-59
2024/01/20 07:56:14;;;;;;;22.30;10.40;;;23.30;40.00;;;;;;6249906;27;80480;-59
2024/01/20 07:59:16;;;;;;;27.52;12.95;;;23.30;40.30;;;;;;6247716;27;83171;-61
2024/01/20 08:02:17;;;;;;;27.92;13.82;;;23.30;40.90;;;;;;6239639;27;83266;-61
2024/01/20 08:05:17;;;;;;;27.23;11.95;;;23.30;41.10;;;;;;6235842;28;83258;-61
2024/01/20 08:08:18;;;;;;;25.95;11.65;;;23.30;41.20;;;;;;6234186;27;82883;-61
2024/01/20 08:11:18;;;;;;;27.83;11.02;;;23.30;40.90;;;;;;6245048;28;83133;-60
2024/01/20 08:14:18;;;;;;;24.23;10.43;;;23.30;41.10;;;;;;6244321;27;83870;-61
2024/01/20 08:17:20;;;;;;;23.50;10.55;;;23.20;41.10;;;;;;6246688;28;85869;-60
2024/01/20 08:20:20;;;;;;;23.92;10.60;;;23.20;40.90;;;;;;6242868;27;85554;-54
2024/01/20 08:23:21;;;;;;;19.58;8.95;;;23.30;41.40;;;;;;6243978;27;83895;-56
2024/01/20 08:26:21;;;;;;;16.65;8.88;;;23.20;40.60;;;;;;6236542;27;86326;-50
2024/01/20 08:29:22;;;;;;;14.32;8.50;;;23.10;41.00;;;;;;6236476;27;81102;-54
2024/01/20 08:32:22;;;;;;;24.30;8.77;;;23.10;40.70;;;;;;6226100;27;81912;-55
2024/01/20 08:35:23;;;;;;;18.08;8.05;;;23.10;40.30;;;;;;6247980;27;82422;-53
2024/01/20 08:38:23;;;;;;;20.40;8.05;;;23.20;41.40;;;;;;6248118;28;80387;-61
2024/01/20 08:41:24;;;;;;;17.20;7.60;;;23.10;41.40;;;;;;6238386;28;81100;-60
2024/01/20 08:44:24;;;;;;;19.88;8.35;;;23.10;41.20;;;;;;6244655;28;80623;-61
2024/01/20 08:47:25;;;;;;;19.63;7.95;;;23.10;40.90;;;;;;6238782;27;83903;-63
2024/01/20 08:50:26;;;;;;;15.48;7.18;;;23.20;41.40;;;;;;6245660;28;80277;-60
2024/01/20 08:53:26;;;;;;;15.40;7.03;;;23.20;41.50;;;;;;6246107;27;80435;-63
2024/01/20 08:56:27;;;;;;;9.55;5.55;;;23.20;41.70;;;;;;6241104;28;81468;-61
2024/01/20 08:59:27;;;;;;;12.43;6.05;;;23.20;41.90;;;;;;6234253;28;80618;-62
2024/01/20 09:02:28;;;;;;;8.57;5.18;;;23.20;41.90;;;;;;6239539;28;80552;-61
2024/01/20 09:05:28;;;;;;;10.52;5.38;;;23.30;41.80;;;;;;6240227;27;83089;-60
2024/01/20 09:08:29;;;;;;;20.10;5.72;;;23.30;41.30;;;;;;6248234;28;80768;-59
2024/01/20 09:11:29;;;;;;;10.80;5.13;;;23.30;40.80;;;;;;6245028;27;80752;-60
2024/01/20 09:14:30;;;;;;;9.85;4.97;;;23.30;40.40;;;;;;6249298;27;80306;-62
2024/01/20 09:17:30;;;;;;;12.13;5.13;;;23.40;40.40;;;;;;6248072;27;81311;-63
2024/01/20 09:20:31;;;;;;;9.35;4.90;;;23.40;40.40;;;;;;6249412;28;83466;-61
2024/01/20 09:23:32;;;;;;;12.55;5.03;;;23.40;40.50;;;;;;6229684;27;80955;-62
2024/01/20 09:26:33;;;;;;;9.70;4.63;;;23.50;40.50;;;;;;6246247;27;80770;-62
2024/01/20 09:29:34;;;;;;;8.82;4.50;;;23.50;40.70;;;;;;6246698;27;81624;-62
2024/01/20 09:32:35;;;;;;;10.18;5.25;;;23.50;41.00;;;;;;6248631;27;80314;-65
2024/01/20 09:35:36;;;;;;;8.40;4.10;;;23.60;40.40;;;;;;6247914;27;80987;-63
2024/01/20 09:38:36;;;;;;;8.20;5.05;;;23.60;40.40;;;;;;6273744;27;80773;-62
2024/01/20 09:41:37;;;;;;;7.90;4.22;;;23.60;40.10;;;;;;6274313;27;80593;-67
2024/01/20 09:44:37;;;;;;;10.50;5.65;;;23.60;40.10;;;;;;6271795;27;81035;-60
2024/01/20 09:47:38;;;;;;;11.15;4.43;;;23.70;40.10;;;;;;6257974;27;80816;-62
2024/01/20 09:50:38;;;;;;;11.98;4.78;;;23.70;40.10;;;;;;6279875;27;80721;-62
2024/01/20 09:53:39;;;;;;;7.38;4.55;;;23.70;40.10;;;;;;6276295;27;80608;-63
2024/01/20 09:56:39;;;;;;;6.90;4.28;;;23.80;40.00;;;;;;6268434;27;82524;-62
2024/01/20 09:59:39;;;;;;;8.52;4.25;;;23.80;39.80;;;;;;6271923;27;80521;-61
2024/01/20 10:02:41;;;;;;;9.80;4.68;;;23.80;39.40;;;;;;6275405;27;81503;-64
2024/01/20 10:05:41;;;;;;;8.88;4.07;;;23.80;39.50;;;;;;6276491;27;81068;-63
2024/01/20 10:08:42;;;;;;;7.30;4.35;;;23.90;39.10;;;;;;6276990;27;80930;-53
2024/01/20 10:11:42;;;;;;;10.13;4.05;;;24.00;39.00;;;;;;6276265;27;81387;-54
2024/01/20 10:14:42;;;;;;;9.45;4.78;;;24.00;38.70;;;;;;6278504;27;80260;-55
2024/01/20 10:17:43;;;;;;;7.65;4.30;;;24.00;38.70;;;;;;6275603;27;81107;-55
2024/01/20 10:20:44;;;;;;;6.53;4.28;;;24.00;38.70;;;;;;6276909;27;80375;-54
2024/01/20 10:23:46;;;;;;;6.30;4.20;;;24.00;38.80;;;;;;6263981;27;80919;-55
2024/01/20 10:26:48;;;;;;;7.47;4.03;;;23.90;38.90;;;;;;6276480;27;80836;-62
2024/01/20 10:29:49;;;;;;;8.80;4.35;;;24.00;39.60;;;;;;6275836;27;80747;-63
2024/01/20 10:32:49;;;;;;;6.82;3.97;;;24.00;39.20;;;;;;6277755;27;80515;-62
2024/01/20 10:35:50;;;;;;;6.00;4.18;;;24.00;39.00;;;;;;6275142;27;82138;-61
2024/01/20 10:38:51;;;;;;;6.00;4.40;;;24.10;38.50;;;;;;6278067;27;81543;-61
2024/01/20 10:41:51;;;;;;;7.03;4.50;;;24.20;38.30;;;;;;6274966;27;80517;-64
2024/01/20 10:44:52;;;;;;;6.85;3.75;;;24.40;38.40;;;;;;6271528;27;82051;-64
2024/01/20 10:47:53;;;;;;;7.63;4.38;;;24.50;38.40;;;;;;6277282;27;80379;-62
2024/01/20 10:50:54;;;;;;;11.07;3.85;;;24.60;38.30;;;;;;6277775;27;80458;-62
2024/01/20 10:53:54;;;;;;;5.47;3.75;;;24.60;38.30;;;;;;6276729;27;80358;-65
2024/01/20 10:56:55;;;;;;;8.98;4.20;;;24.60;38.30;;;;;;6277787;27;80750;-60
2024/01/20 10:59:55;;;;;;;10.15;4.65;;;24.50;38.60;;;;;;6277042;27;81825;-61
2024/01/20 11:02:56;;;;;;;11.00;4.55;;;24.50;38.10;;;;;;6277606;27;80662;-62
2024/01/20 11:05:56;;;;;;;9.27;4.05;;;24.60;38.10;;;;;;6267963;27;80673;-60
2024/01/20 11:08:57;;;;;;;7.70;4.15;;;24.80;38.10;;;;;;6276401;27;81352;-64
2024/01/20 11:11:57;;;;;;;9.65;3.90;;;24.80;38.20;;;;;;6277861;27;86782;-61
2024/01/20 11:14:58;;;;;;;7.35;4.13;;;24.80;38.30;;;;;;6277061;27;81441;-61
2024/01/20 11:17:58;;;;;;;7.45;4.28;;;24.70;38.20;;;;;;6277109;27;81543;-61
2024/01/20 11:20:59;;;;;;;8.10;4.22;;;24.60;38.20;;;;;;6261991;27;80469;-61
2024/01/20 11:23:59;;;;;;;7.60;4.15;;;24.60;38.30;;;;;;6265934;27;80759;-63
2024/01/20 11:27:00;;;;;;;9.73;4.03;;;24.60;38.30;;;;;;6276425;27;82783;-62
2024/01/20 11:30:01;;;;;;;10.52;4.82;;;24.60;38.30;;;;;;6275668;27;80627;-63
2024/01/20 11:33:01;;;;;;;7.00;4.53;;;24.70;38.40;;;;;;6276926;27;80666;-61
2024/01/20 11:36:01;;;;;;;7.95;4.65;;;24.80;38.40;;;;;;6266036;27;80511;-63
2024/01/20 11:39:04;;;;;;;6.82;4.05;;;24.90;38.40;;;;;;6251241;27;80913;-62
2024/01/20 11:42:05;;;;;;;7.97;4.68;;;25.00;38.20;;;;;;6250924;27;80624;-62
2024/01/20 11:45:06;;;;;;;8.68;5.38;;;25.10;38.10;;;;;;6251440;28;82348;-68
2024/01/20 11:48:06;;;;;;;6.47;4.28;;;25.20;38.00;;;;;;6248366;27;80927;-63
2024/01/20 11:51:07;;;;;;;8.85;4.57;;;25.30;37.80;;;;;;6251095;28;80423;-66
2024/01/20 11:54:07;;;;;;;9.63;5.05;;;25.40;37.80;;;;;;6248620;28;80401;-60
2024/01/20 11:57:08;;;;;;;15.65;5.45;;;25.50;37.80;;;;;;6243006;27;80574;-64
2024/01/20 12:00:10;;;;;;;9.82;5.07;;;25.60;37.80;;;;;;6250211;27;81021;-62
2024/01/20 12:03:10;;;;;;;11.77;4.75;;;25.60;37.70;;;;;;6248084;27;80615;-64
2024/01/20 12:06:11;;;;;;;9.88;5.00;;;25.70;37.80;;;;;;6247682;27;81292;-61
2024/01/20 12:09:11;;;;;;;13.07;4.90;;;25.80;37.80;;;;;;6250409;27;80366;-61
2024/01/20 12:12:13;;;;;;;10.75;4.25;;;25.70;35.60;;;;;;6234411;27;80917;-63
2024/01/20 12:15:13;;;;;;;9.75;3.75;;;25.30;32.20;;;;;;6243388;27;80158;-64
2024/01/20 12:18:16;;;;;;;6.10;4.25;;;25.10;30.90;;;;;;6249924;27;80787;-56
2024/01/20 12:21:16;;;;;;;7.68;3.58;;;25.00;30.30;;;;;;6249309;27;80804;-58
2024/01/20 12:24:17;;;;;;;8.40;3.90;;;24.90;30.30;;;;;;6250437;28;80599;-56
2024/01/20 12:27:18;;;;;;;8.23;4.57;;;24.70;30.00;;;;;;6248935;27;80762;-56
2024/01/20 12:30:18;;;;;;;11.32;5.28;;;24.60;29.50;;;;;;6250386;27;80435;-55
2024/01/20 12:33:19;;;;;;;10.57;5.60;;;24.60;29.70;;;;;;6250888;28;80947;-56
2024/01/20 12:36:19;;;;;;;11.07;5.40;;;24.60;29.50;;;;;;6263204;27;80308;-58
2024/01/20 12:39:20;;;;;;;12.60;5.43;;;24.60;29.50;;;;;;6276340;27;80885;-53
2024/01/20 12:42:20;;;;;;;11.82;6.28;;;24.50;29.50;;;;;;6276024;27;80338;-51
2024/01/20 12:45:21;;;;;;;10.20;5.65;;;24.50;29.50;;;;;;6274856;27;80717;-55
2024/01/20 12:48:22;;;;;;;11.85;5.57;;;24.50;29.60;;;;;;6262003;27;80902;-54
2024/01/20 12:51:22;;;;;;;12.27;6.10;;;24.50;30.30;;;;;;6274695;27;84775;-53
2024/01/20 12:54:23;;;;;;;12.23;7.25;;;24.40;29.40;;;;;;6275849;27;80493;-55
2024/01/20 12:57:23;;;;;;;13.10;6.68;;;24.40;30.20;;;;;;6274927;27;80544;-55
2024/01/20 13:00:24;;;;;;;11.73;6.32;;;24.40;30.90;;;;;;6274470;27;80688;-54
2024/01/20 13:03:24;;;;;;;16.70;7.03;;;24.50;30.70;;;;;;6272360;27;82668;-52
2024/01/20 13:06:25;;;;;;;18.60;7.60;;;24.70;33.20;;;;;;6273629;27;81978;-50
2024/01/20 13:09:25;;;;;;;14.90;7.63;;;24.70;31.40;;;;;;6275364;27;81128;-54
2024/01/20 13:12:26;;;;;;;13.95;6.95;;;24.70;31.60;;;;;;6272084;27;83636;-51
2024/01/20 13:15:26;;;;;;;14.88;7.05;;;24.60;31.20;;;;;;6274851;27;81675;-55
2024/01/20 13:18:27;;;;;;;11.73;6.88;;;24.60;31.10;;;;;;6274667;27;80272;-56
2024/01/20 13:21:27;;;;;;;16.25;7.25;;;24.50;30.70;;;;;;6263055;27;82361;-52
2024/01/20 13:24:28;;;;;;;15.43;6.75;;;24.70;33.40;;;;;;6279486;27;81085;-54
2024/01/20 13:27:28;;;;;;;11.38;5.80;;;25.00;34.00;;;;;;6278572;27;80553;-52
2024/01/20 13:30:29;;;;;;;10.68;5.38;;;25.20;34.60;;;;;;6261775;27;83010;-48
2024/01/20 13:33:29;;;;;;;13.02;6.53;;;25.50;34.80;;;;;;6273240;27;80371;-50
2024/01/20 13:36:30;;;;;;;12.77;5.80;;;25.70;35.00;;;;;;6271986;27;81263;-52
2024/01/20 13:39:30;;;;;;;14.18;6.10;;;25.80;35.00;;;;;;6271814;27;80504;-50
2024/01/20 13:42:31;;;;;;;9.55;5.60;;;26.00;35.00;;;;;;6273031;27;80607;-53
2024/01/20 13:45:31;;;;;;;10.02;5.22;;;26.10;35.10;;;;;;6264758;27;82178;-52
2024/01/20 13:48:32;;;;;;;10.65;5.25;;;26.10;35.30;;;;;;6275623;27;82328;-65
2024/01/20 13:51:32;;;;;;;9.52;5.22;;;26.10;35.50;;;;;;6278661;27;85030;-65
2024/01/20 13:54:33;;;;;;;12.02;5.38;;;26.10;35.40;;;;;;6271468;27;80652;-66
2024/01/20 13:57:33;;;;;;;10.13;5.15;;;26.10;35.60;;;;;;6277282;27;80430;-67
2024/01/20 14:00:34;;;;;;;9.10;4.82;;;26.10;35.60;;;;;;6270646;27;80600;-66
2024/01/20 14:03:34;;;;;;;8.15;4.95;;;26.10;35.80;;;;;;6271263;27;86392;-64
2024/01/20 14:06:35;;;;;;;9.70;5.22;;;26.00;36.00;;;;;;6270686;27;80557;-62
2024/01/20 14:09:35;;;;;;;10.35;5.10;;;26.00;36.20;;;;;;6265239;27;80101;-68
2024/01/20 14:12:36;;;;;;;8.15;4.93;;;26.00;36.90;;;;;;6270702;27;80472;-65
2024/01/20 14:15:38;;;;;;;7.53;4.47;;;26.10;36.80;;;;;;6274416;27;81045;-70
2024/01/20 14:18:39;;;;;;;18.88;5.53;;;26.10;36.70;;;;;;6266299;27;80684;-67
2024/01/20 14:21:39;;;;;;;9.10;5.15;;;26.20;37.00;;;;;;6271134;27;81358;-67
2024/01/20 14:24:40;;;;;;;10.23;4.90;;;26.20;36.30;;;;;;6275793;27;80242;-69
2024/01/20 14:27:40;;;;;;;8.50;4.93;;;26.20;36.30;;;;;;6264429;27;83285;-67
2024/01/20 14:30:41;;;;;;;10.13;5.10;;;26.00;36.10;;;;;;6264987;27;80951;-71
2024/01/20 14:33:41;;;;;;;12.43;4.97;;;25.90;36.30;;;;;;6270175;27;80591;-64
2024/01/20 14:36:42;;;;;;;11.13;5.38;;;25.70;36.90;;;;;;6272035;27;80939;-69
2024/01/20 14:39:42;;;;;;;9.13;5.57;;;25.60;37.20;;;;;;6276196;27;81568;-71
2024/01/20 14:42:43;;;;;;;9.43;5.10;;;25.60;37.30;;;;;;6278751;27;80319;-69
2024/01/20 14:45:43;;;;;;;11.00;4.50;;;25.50;37.40;;;;;;6278211;27;80055;-57
2024/01/20 14:48:44;;;;;;;7.65;4.40;;;25.40;37.50;;;;;;6273552;27;80577;-58
2024/01/20 14:51:45;;;;;;;11.95;5.20;;;25.40;37.90;;;;;;6276140;27;81333;-61
2024/01/20 14:54:46;;;;;;;9.48;5.28;;;25.30;37.90;;;;;;6276445;27;80940;-60
2024/01/20 14:57:46;;;;;;;9.43;5.03;;;25.30;37.90;;;;;;6277338;27;80331;-60
2024/01/20 15:00:47;;;;;;;9.55;4.72;;;25.20;37.50;;;;;;6273947;27;80320;-59
2024/01/20 15:03:47;;;;;;;10.15;4.88;;;25.10;37.40;;;;;;6267920;27;81053;-57
2024/01/20 15:06:48;;;;;;;10.65;5.20;;;24.90;37.40;;;;;;6278871;27;82232;-53
2024/01/20 15:09:48;;;;;;;9.00;5.10;;;24.90;37.30;;;;;;6276965;27;80386;-53
2024/01/20 15:12:49;;;;;;;10.82;5.35;;;24.80;37.20;;;;;;6277586;27;80596;-54
2024/01/20 15:15:49;;;;;;;10.45;5.25;;;24.70;37.20;;;;;;6276741;27;81441;-55
2024/01/20 15:18:50;;;;;;;9.82;5.13;;;24.60;37.20;;;;;;6264314;27;82934;-52
2024/01/20 15:21:50;;;;;;;10.52;5.80;;;24.60;37.50;;;;;;6275771;27;80365;-54
2024/01/20 15:24:51;;;;;;;11.35;5.32;;;24.50;37.80;;;;;;6276109;27;80387;-54
2024/01/20 15:27:52;;;;;;;9.13;4.80;;;24.40;37.50;;;;;;6277304;27;81062;-55
2024/01/20 15:30:52;;;;;;;10.02;5.32;;;24.40;37.50;;;;;;6277329;27;80657;-54
2024/01/20 15:33:56;;;;;;;8.80;5.25;;;24.40;37.80;;;;;;6275960;27;80347;-56